createdAt,value
2023-03-01T00:04:34.142Z,-27.4
2023-03-01T00:06:35.647Z,-27.4
2023-03-01T00:08:37.392Z,-27.4
2023-03-01T00:14:42.187Z,-27.4
2023-03-01T00:16:44.319Z,-27.2
2023-03-01T00:18:45.881Z,-27.1
2023-03-01T00:20:47.004Z,-27.4
2023-03-01T00:22:48.640Z,-27.5
2023-03-01T00:24:50.589Z,-27.5
2023-03-01T00:26:52.487Z,-26.9
2023-03-01T00:28:53.668Z,-27.3
2023-03-01T00:30:54.863Z,-27.3
2023-03-01T00:32:56.601Z,-27.4
2023-03-01T00:34:58.519Z,-27.3
2023-03-01T00:37:00.418Z,-27.3
2023-03-01T00:39:02.403Z,-27.2
2023-03-01T00:41:03.977Z,-27.4
2023-03-01T00:45:08.045Z,-27.2
2023-03-01T00:47:09.213Z,-27.4
2023-03-01T00:49:11.009Z,-27.4
2023-03-01T00:51:13.123Z,-27.2
2023-03-01T00:57:18.004Z,-27.3
2023-03-01T00:59:19.732Z,-27.2
2023-03-01T01:01:21.148Z,-27
2023-03-01T01:03:22.986Z,-27
2023-03-01T01:05:24.431Z,-27.3
2023-03-01T01:07:26.251Z,-27.3
2023-03-01T01:09:28.358Z,-27.4
2023-03-01T01:11:30.259Z,-27
2023-03-01T01:13:31.707Z,-27.2
2023-03-01T01:15:33.715Z,-27.2
2023-03-01T01:17:35.271Z,-27.3
2023-03-01T01:19:36.467Z,-27.2
2023-03-01T01:21:37.899Z,-27.2
2023-03-01T01:23:39.475Z,-27.1
2023-03-01T01:27:42.915Z,-27.2
2023-03-01T01:29:44.883Z,-27.2
2023-03-01T01:31:46.310Z,-27.3
2023-03-01T01:33:47.506Z,-27.1
2023-03-01T01:37:51.591Z,-27.1
2023-03-01T01:39:53.596Z,-27
2023-03-01T01:41:54.927Z,-27.1
2023-03-01T01:43:56.556Z,-27.1
2023-03-01T01:45:58.546Z,-27.1
2023-03-01T01:48:00.121Z,-26.9
2023-03-01T01:50:02.100Z,-27.5
2023-03-01T01:52:03.641Z,-27.4
2023-03-01T01:54:05.483Z,-27.2
2023-03-01T01:56:07.527Z,-27.2
2023-03-01T01:58:09.475Z,-27.1
2023-03-01T02:00:10.910Z,-27.5
2023-03-01T02:02:12.473Z,-27.3
2023-03-01T02:06:15.382Z,-27.2
2023-03-01T02:08:16.625Z,-27.2
2023-03-01T02:10:17.943Z,-27.2
2023-03-01T02:12:20.074Z,-27.5
2023-03-01T02:14:21.837Z,-27.4
2023-03-01T02:16:23.801Z,-27.1
2023-03-01T02:18:25.326Z,-27.3
2023-03-01T02:20:26.811Z,-27.4
2023-03-01T02:22:28.275Z,-27
2023-03-01T02:24:29.496Z,-27.5
2023-03-01T02:26:30.885Z,-27.2
2023-03-01T02:28:31.945Z,-27.2
2023-03-01T02:30:33.836Z,-27.1
2023-03-01T02:32:35.639Z,-27.4
2023-03-01T02:34:37.338Z,-27.3
2023-03-01T02:36:39.226Z,-27
2023-03-01T02:38:41.102Z,-27.2
2023-03-01T02:40:42.918Z,-27.4
2023-03-01T02:42:44.728Z,-27.4
2023-03-01T02:44:46.558Z,-27.1
2023-03-01T02:46:48.366Z,-27
2023-03-01T02:48:50.289Z,-27.4
2023-03-01T02:52:53.069Z,-27
2023-03-01T02:54:54.206Z,-27.3
2023-03-01T02:56:55.368Z,-27.2
2023-03-01T02:58:56.612Z,-27.2
2023-03-01T03:05:01.287Z,-27.1
2023-03-01T03:07:03.392Z,-27.2
2023-03-01T03:09:04.930Z,-27.4
2023-03-01T03:11:07.060Z,-27.1
2023-03-01T03:13:08.789Z,-27.1
2023-03-01T03:15:09.978Z,-27.3
2023-03-01T03:17:11.690Z,-27.2
2023-03-01T03:19:13.449Z,-27.4
2023-03-01T03:21:14.596Z,-27.4
2023-03-01T03:23:16.695Z,-27.2
2023-03-01T03:25:18.423Z,-27.4
2023-03-01T03:27:20.335Z,-27.4
2023-03-01T03:29:22.233Z,-27.2
2023-03-01T03:31:24.034Z,-27.3
2023-03-01T03:35:27.185Z,-27.3
2023-03-01T03:37:28.499Z,-27.2
2023-03-01T03:39:30.545Z,-27.3
2023-03-01T03:41:32.539Z,-27.1
2023-03-01T03:45:36.238Z,-27.3
2023-03-01T03:47:37.672Z,-27.2
2023-03-01T03:49:39.334Z,-27.1
2023-03-01T03:51:40.730Z,-27.4
2023-03-01T03:53:42.831Z,-27.3
2023-03-01T03:55:44.404Z,-27.1
2023-03-01T03:57:46.408Z,-27.2
2023-03-01T03:59:48.139Z,-27.1
2023-03-01T04:01:50.040Z,-27.2
2023-03-01T04:03:51.880Z,-27.2
2023-03-01T04:05:53.483Z,-27.4
2023-03-01T04:07:55.372Z,-27.1
2023-03-01T04:09:56.608Z,-27.2
2023-03-01T04:13:59.856Z,-27.3
2023-03-01T04:18:02.644Z,-27.1
2023-03-01T04:20:04.219Z,-27.4
2023-03-01T04:22:06.026Z,-27.4
2023-03-01T04:24:16.492Z,-27.2
2023-03-01T04:28:11.372Z,-27.2
2023-03-01T04:30:12.977Z,-27.4
2023-03-01T04:32:14.528Z,-27.3
2023-03-01T04:34:16.527Z,-27.3
2023-03-01T04:36:18.092Z,-27.3
2023-03-01T04:38:20.083Z,-27.3
2023-03-01T04:40:22.185Z,-27.2
2023-03-01T04:42:23.958Z,-27.5
2023-03-01T04:44:25.938Z,-27.3
2023-03-01T04:46:27.923Z,-27.1
2023-03-01T04:48:29.649Z,-27.3
2023-03-01T04:50:31.454Z,-27
2023-03-01T04:52:33.263Z,-27
2023-03-01T04:56:36.603Z,-27.3
2023-03-01T04:58:38.283Z,-27.1
2023-03-01T05:00:39.760Z,-27
2023-03-01T05:02:41.707Z,-27.1
2023-03-01T05:04:43.278Z,-27.2
2023-03-01T05:06:44.529Z,-27.3
2023-03-01T05:10:46.954Z,-27.2
2023-03-01T05:12:48.881Z,-27.4
2023-03-01T05:14:50.992Z,-27.3
2023-03-01T05:16:52.596Z,-27.4
2023-03-01T05:18:53.924Z,-27.4
2023-03-01T05:20:55.247Z,-27
2023-03-01T05:22:56.745Z,-27.1
2023-03-01T05:24:58.679Z,-27.1
2023-03-01T05:27:00.006Z,-27.4
2023-03-01T05:29:01.529Z,-27.2
2023-03-01T05:31:02.886Z,-27.1
2023-03-01T05:33:04.002Z,-27.1
2023-03-01T05:35:05.743Z,-27.2
2023-03-01T05:37:07.597Z,-27.4
2023-03-01T05:39:09.076Z,-27.2
2023-03-01T05:43:12.254Z,-27.2
2023-03-01T05:45:13.649Z,-27.4
2023-03-01T05:47:15.471Z,-27.3
2023-03-01T05:49:17.567Z,-27.3
2023-03-01T05:55:22.195Z,-27.2
2023-03-01T05:57:24.242Z,-27.3
2023-03-01T05:59:26.072Z,-27.4
2023-03-01T06:01:27.877Z,-27.2
2023-03-01T06:03:29.360Z,-27
2023-03-01T06:05:31.275Z,-27.2
2023-03-01T06:07:32.979Z,-27.3
2023-03-01T06:09:34.306Z,-27
2023-03-01T06:11:35.867Z,-27.4
2023-03-01T06:13:37.644Z,-27.4
2023-03-01T06:15:39.177Z,-27
2023-03-01T06:17:40.465Z,-27.2
2023-03-01T06:19:42.507Z,-27.1
2023-03-01T06:21:44.351Z,-27.3
2023-03-01T06:25:47.712Z,-27.2
2023-03-01T06:27:49.340Z,-27.3
2023-03-01T06:29:50.596Z,-27.3
2023-03-01T06:31:51.873Z,-27.3
2023-03-01T06:37:56.448Z,-27.3
2023-03-01T06:39:58.191Z,-27.1
2023-03-01T06:42:00.063Z,-27.2
2023-03-01T06:44:01.348Z,-27.3
2023-03-01T06:46:03.312Z,-23.8
2023-03-01T06:48:05.056Z,-20.8
2023-03-01T06:48:49.084Z,-19.9
2023-03-01T06:52:52.022Z,-15.1
2023-03-01T06:54:53.424Z,-12.4
2023-03-01T06:56:55.362Z,-9.89
2023-03-01T06:58:57.363Z,-9
2023-03-01T07:00:59.434Z,-7.3
2023-03-01T07:03:00.689Z,-3.8
2023-03-01T07:05:01.898Z,-8
2023-03-01T07:07:03.802Z,1.9
2023-03-01T07:09:04.893Z,6.5
2023-03-01T07:11:05.995Z,11.1
2023-03-01T07:15:10.014Z,20.9
2023-03-01T07:17:11.843Z,24.2
2023-03-01T07:19:12.961Z,28.7
2023-03-01T07:21:14.594Z,8.6
2023-03-01T07:23:16.459Z,35.4
2023-03-01T07:25:18.260Z,34
2023-03-01T07:29:21.507Z,39.59
2023-03-01T07:31:22.756Z,38.5
2023-03-01T07:33:24.702Z,41.5
2023-03-01T07:35:25.838Z,44.6
2023-03-01T07:37:27.414Z,46.9
2023-03-01T07:39:29.250Z,48.7
2023-03-01T07:41:30.302Z,53
2023-03-01T07:43:32.301Z,57.9
2023-03-01T07:45:34.259Z,60.5
2023-03-01T07:47:35.372Z,66.9
2023-03-01T07:51:39.037Z,72.5
2023-03-01T07:53:40.129Z,73.9
2023-03-01T07:55:41.195Z,76.69
2023-03-01T07:57:42.404Z,78
2023-03-01T08:01:44.911Z,77.6
2023-03-01T08:03:46.723Z,76.8
2023-03-01T08:05:48.300Z,77
2023-03-01T08:07:50.148Z,77
2023-03-01T08:13:54.726Z,73.69
2023-03-01T08:15:56.456Z,73.4
2023-03-01T08:17:58.304Z,72.3
2023-03-01T08:19:59.814Z,71.8
2023-03-01T08:22:01.388Z,71.9
2023-03-01T08:24:02.758Z,71
2023-03-01T08:26:03.942Z,70.3
2023-03-01T08:28:04.916Z,67.69
2023-03-01T08:30:06.216Z,67.19
2023-03-01T08:32:07.694Z,67.1
2023-03-01T08:34:09.152Z,65
2023-03-01T08:40:13.320Z,61.6
2023-03-01T08:42:14.616Z,60.3
2023-03-01T08:44:15.871Z,58.7
2023-03-01T08:46:17.136Z,57.6
2023-03-01T08:48:18.494Z,56.9
2023-03-01T08:50:19.547Z,55.3
2023-03-01T08:52:21.182Z,53.8
2023-03-01T08:54:22.614Z,51.9
2023-03-01T08:56:24.424Z,50.9
2023-03-01T08:58:25.607Z,50.5
2023-03-01T09:00:27.439Z,48.8
2023-03-01T09:04:29.796Z,46.3
2023-03-01T09:06:31.122Z,45.6
2023-03-01T09:08:32.380Z,43.4
2023-03-01T09:10:33.365Z,42.9
2023-03-01T09:12:34.502Z,41.5
2023-03-01T09:14:35.624Z,40.9
2023-03-01T09:16:36.937Z,39
2023-03-01T09:18:38.578Z,37.8
2023-03-01T09:20:39.748Z,20.2
2023-03-01T09:22:40.679Z,35.59
2023-03-01T09:26:43.012Z,33.8
2023-03-01T09:28:44.089Z,32.9
2023-03-01T09:30:45.377Z,32.59
2023-03-01T09:32:46.691Z,31
2023-03-01T09:38:50.565Z,28.7
2023-03-01T09:40:52.194Z,27.3
2023-03-01T09:42:54.081Z,25.2
2023-03-01T09:44:55.007Z,24.1
2023-03-01T09:46:56.634Z,23.5
2023-03-01T09:48:58.199Z,22.3
2023-03-01T09:50:59.952Z,22.3
2023-03-01T09:53:01.762Z,21
2023-03-01T09:55:03.428Z,20.29
2023-03-01T09:57:05.173Z,18.29
2023-03-01T09:59:06.257Z,18
2023-03-01T10:01:07.985Z,18.5
2023-03-01T10:03:08.928Z,15.6
2023-03-01T10:05:10.778Z,15.1
2023-03-01T10:07:11.725Z,15.2
2023-03-01T10:09:13.328Z,14.3
2023-03-01T10:11:15.182Z,12.8
2023-03-01T10:13:16.435Z,12.6
2023-03-01T10:15:17.602Z,10.9
2023-03-01T10:17:20.328Z,11.3
2023-03-01T10:19:20.087Z,9
2023-03-01T10:21:21.674Z,9.3
2023-03-01T10:23:23.398Z,8.1
2023-03-01T10:25:24.931Z,6.8
2023-03-01T10:27:26.237Z,7
2023-03-01T10:29:28.041Z,6.4
2023-03-01T10:31:29.885Z,6.3
2023-03-01T10:37:33.534Z,0.3
2023-03-01T10:39:35.144Z,4.5
2023-03-01T10:41:36.682Z,4.4
2023-03-01T10:43:37.880Z,-27.4
2023-03-01T10:45:39.051Z,-27.4
2023-03-01T10:47:40.129Z,-53.1
2023-03-01T10:49:41.852Z,-27.5
2023-03-01T10:51:43.601Z,-27.4
2023-03-01T10:53:45.182Z,-27.1
2023-03-01T10:57:48.087Z,-27.3
2023-03-01T10:59:49.691Z,-27.5
2023-03-01T11:01:51.014Z,-27.4
2023-03-01T11:03:52.893Z,-27.4
2023-03-01T11:07:55.584Z,-27.8
2023-03-01T11:09:57.249Z,-27.3
2023-03-01T11:11:59.072Z,-27.4
2023-03-01T11:14:00.675Z,-27.3
2023-03-01T11:18:13.680Z,-27.7
2023-03-01T11:20:04.803Z,-27.9
2023-03-01T11:22:06.265Z,-27.5
2023-03-01T11:24:07.744Z,-27.3
2023-03-01T11:28:10.588Z,-27.6
2023-03-01T11:30:11.610Z,-27.5
2023-03-01T11:32:12.710Z,-27.3
2023-03-01T11:34:14.488Z,-27.5
2023-03-01T11:36:15.663Z,-27.6
2023-03-01T11:38:17.477Z,-27.6
2023-03-01T11:40:19.380Z,-27.4
2023-03-01T11:46:23.659Z,-27.5
2023-03-01T11:48:25.068Z,-27.5
2023-03-01T11:50:26.113Z,-27.5
2023-03-01T11:52:27.756Z,-27.3
2023-03-01T11:54:28.874Z,-27.6
2023-03-01T11:56:30.385Z,-27.7
2023-03-01T11:58:31.752Z,-27.4
2023-03-01T12:00:33.011Z,-27.3
2023-03-01T12:02:34.343Z,-27.1
2023-03-01T12:06:37.635Z,-27.2
2023-03-01T12:08:39.252Z,-27.6
2023-03-01T12:10:40.488Z,-27.6
2023-03-01T12:12:42.035Z,-27.1
2023-03-01T12:16:45.505Z,-27.3
2023-03-01T12:18:47.167Z,-27.6
2023-03-01T12:22:50.139Z,-27.4
2023-03-01T12:24:51.397Z,-27.5
2023-03-01T12:26:52.814Z,-27.5
2023-03-01T12:28:54.131Z,-27.5
2023-03-01T12:32:56.954Z,-27.3
2023-03-01T12:34:58.791Z,-27.6
2023-03-01T12:36:59.757Z,-27.5
2023-03-01T12:39:00.703Z,-27.5
2023-03-01T12:41:01.972Z,-27.3
2023-03-01T12:43:03.220Z,-27.5
2023-03-01T12:45:04.452Z,-27.6
2023-03-01T12:47:05.621Z,-27.5
2023-03-01T12:49:06.854Z,-27.6
2023-03-01T12:51:08.745Z,-27.5
2023-03-01T12:53:10.321Z,-27.5
2023-03-01T12:55:11.244Z,-49.2
2023-03-01T12:57:12.418Z,-27.5
2023-03-01T12:59:14.053Z,-27.4
2023-03-01T13:01:15.877Z,-27.3
2023-03-01T13:05:17.988Z,-27.5
2023-03-01T13:07:19.737Z,-27.4
2023-03-01T13:09:21.485Z,-47.3
2023-03-01T13:11:22.887Z,-27.7
2023-03-01T13:15:26.167Z,53.6
2023-03-01T13:17:27.204Z,50.7
2023-03-01T13:19:29.041Z,48.3
2023-03-01T13:21:30.545Z,43.7
2023-03-01T13:23:31.723Z,41.3
2023-03-01T13:25:41.140Z,26
2023-03-01T13:27:34.777Z,37.8
2023-03-01T13:29:35.835Z,36.2
2023-03-01T13:31:36.946Z,34.5
2023-03-01T13:33:38.434Z,33.3
2023-03-01T13:34:22.217Z,20.8
2023-03-01T13:38:25.505Z,30.6
2023-03-01T13:40:26.534Z,28.2
2023-03-01T13:42:27.723Z,28.2
2023-03-01T13:44:29.538Z,26.5
2023-03-01T13:46:31.425Z,24.4
2023-03-01T13:48:32.839Z,24.8
2023-03-01T13:50:34.383Z,22.8
2023-03-01T13:54:37.104Z,19.29
2023-03-01T13:56:38.712Z,6.5
2023-03-01T13:58:40.442Z,17.1
2023-03-01T14:00:41.930Z,15.4
2023-03-01T14:02:43.236Z,15
2023-03-01T14:04:44.886Z,5.5
2023-03-01T14:10:49.023Z,9.89
2023-03-01T14:12:50.600Z,9.7
2023-03-01T14:14:52.420Z,8.8
2023-03-01T14:16:53.406Z,-1.7
2023-03-01T14:18:55.031Z,9.1
2023-03-01T14:20:56.344Z,6.5
2023-03-01T14:22:57.469Z,6.6
2023-03-01T14:24:58.911Z,5.3
2023-03-01T14:27:00.622Z,4.69
2023-03-01T14:31:03.394Z,4
2023-03-01T14:33:04.308Z,-27.2
2023-03-01T14:35:05.285Z,-27.5
2023-03-01T14:37:06.574Z,-27.5
2023-03-01T14:41:09.156Z,-27.2
2023-03-01T14:43:10.827Z,-27.6
2023-03-01T14:45:12.266Z,-27.4
2023-03-01T14:47:13.419Z,-53.4
2023-03-01T14:51:15.490Z,-27.2
2023-03-01T14:53:17.067Z,-27.5
2023-03-01T14:55:18.251Z,-28.1
2023-03-01T14:57:20.041Z,-28.5
2023-03-01T15:01:22.528Z,-28.3
2023-03-01T15:03:24.044Z,-28.4
2023-03-01T15:05:25.069Z,-28.6
2023-03-01T15:07:25.973Z,-28.2
2023-03-01T15:09:27.595Z,-27.5
2023-03-01T15:11:29.313Z,-27.4
2023-03-01T15:13:30.532Z,-27.6
2023-03-01T15:15:31.837Z,-27.5
2023-03-01T15:19:34.766Z,-27.5
2023-03-01T15:23:38.026Z,-27.5
2023-03-01T15:25:39.668Z,-28.3
2023-03-01T15:27:41.012Z,-28.1
2023-03-01T15:29:42.716Z,-28
2023-03-01T15:33:44.992Z,-27.3
2023-03-01T15:35:46.846Z,-27.3
2023-03-01T15:37:48.068Z,-27.6
2023-03-01T15:39:49.320Z,-27.6
2023-03-01T15:41:50.982Z,-27.9
2023-03-01T15:43:52.492Z,-27.5
2023-03-01T15:45:54.066Z,-27.5
2023-03-01T15:47:55.710Z,-27.8
2023-03-01T15:49:56.789Z,-27.5
2023-03-01T15:51:58.052Z,-27.4
2023-03-01T15:53:59.829Z,-27.3
2023-03-01T15:56:00.817Z,-27.3
2023-03-01T15:58:02.435Z,-28
2023-03-01T16:00:03.703Z,-27.5
2023-03-01T16:02:05.676Z,-27.3
2023-03-01T16:06:08.093Z,-27.3
2023-03-01T16:08:09.162Z,-27.6
2023-03-01T16:10:10.662Z,-27.5
2023-03-01T16:12:11.589Z,-27.4
2023-03-01T16:14:13.385Z,-27.5
2023-03-01T16:18:16.305Z,-27.3
2023-03-01T16:20:26.198Z,-27.5
2023-03-01T16:22:19.967Z,-27.5
2023-03-01T16:24:21.534Z,-27.2
2023-03-01T16:26:22.754Z,-27.6
2023-03-01T16:28:24.516Z,-28.6
2023-03-01T16:32:27.822Z,-27.3
2023-03-01T16:34:29.537Z,-27.3
2023-03-01T16:36:30.855Z,-27.4
2023-03-01T16:38:32.521Z,-27.6
2023-03-01T16:40:34.317Z,-27.7
2023-03-01T16:42:35.504Z,-27.5
2023-03-01T16:44:36.786Z,-27.5
2023-03-01T16:46:38.600Z,-27.6
2023-03-01T16:48:40.227Z,-53.2
2023-03-01T16:50:41.823Z,-27.6
2023-03-01T16:52:43.296Z,-27.6
2023-03-01T16:54:44.469Z,-27.4
2023-03-01T16:56:46.092Z,-27.5
2023-03-01T16:58:48.029Z,-27.4
2023-03-01T17:00:49.873Z,-27.5
2023-03-01T17:02:51.055Z,-27.2
2023-03-01T17:04:53.794Z,-27.6
2023-03-01T17:06:54.693Z,-27.5
2023-03-01T17:08:56.190Z,-47.4
2023-03-01T17:10:57.794Z,-27.5
2023-03-01T17:15:00.947Z,-27.4
2023-03-01T17:17:02.711Z,-27.5
2023-03-01T17:19:04.483Z,-27.5
2023-03-01T17:21:06.206Z,-27.1
2023-03-01T17:23:07.783Z,-27.5
2023-03-01T17:25:09.109Z,-27.3
2023-03-01T17:27:10.850Z,-27.7
2023-03-01T17:29:12.303Z,-27.5
2023-03-01T17:31:13.705Z,-27.6
2023-03-01T17:33:15.591Z,-27.4
2023-03-01T17:35:17.110Z,-27.4
2023-03-01T17:37:18.734Z,-27.5
2023-03-01T17:39:20.724Z,-27.5
2023-03-01T17:41:22.072Z,-27.5
2023-03-01T17:43:24.018Z,-27.4
2023-03-01T17:45:25.427Z,-27.5
2023-03-01T17:47:26.603Z,-27.3
2023-03-01T17:49:28.017Z,-27.2
2023-03-01T17:51:29.917Z,-27.3
2023-03-01T17:53:31.229Z,-27.5
2023-03-01T17:59:36.175Z,-27.5
2023-03-01T18:01:37.849Z,-27.5
2023-03-01T18:03:39.633Z,-27.4
2023-03-01T18:05:40.750Z,-27.5
2023-03-01T18:07:42.212Z,-27.4
2023-03-01T18:09:43.502Z,-27.5
2023-03-01T18:11:47.537Z,-27.4
2023-03-01T18:13:46.438Z,-27.5
2023-03-01T18:15:48.101Z,-27.5
2023-03-01T18:19:51.122Z,-27.4
2023-03-01T18:21:52.983Z,-27.3
2023-03-01T18:23:54.313Z,-27.4
2023-03-01T18:25:56.150Z,-27.4
2023-03-01T18:27:57.155Z,-27.4
2023-03-01T18:29:58.792Z,-27.5
2023-03-01T18:32:00.186Z,-27.5
2023-03-01T18:34:01.736Z,-27.6
2023-03-01T18:36:03.656Z,-27.5
2023-03-01T18:42:07.871Z,-27.5
2023-03-01T18:44:09.852Z,-27.5
2023-03-01T18:46:11.266Z,-27.5
2023-03-01T18:48:13.240Z,-27.4
2023-03-01T18:50:14.236Z,-27.3
2023-03-01T18:52:15.626Z,-27.5
2023-03-01T18:56:18.303Z,-27.5
2023-03-01T18:58:20.118Z,-27.5
2023-03-01T19:00:21.690Z,-40.7
2023-03-01T19:02:23.624Z,-27.4
2023-03-01T19:06:26.798Z,-27.4
2023-03-01T19:08:28.199Z,-27.4
2023-03-01T19:12:32.201Z,-27.4
2023-03-01T19:14:32.793Z,-27.5
2023-03-01T19:16:34.226Z,-27.5
2023-03-01T19:18:35.091Z,-27.6
2023-03-01T19:22:37.398Z,-27.4
2023-03-01T19:24:39.223Z,-27.4
2023-03-01T19:26:41.010Z,-27.5
2023-03-01T19:28:42.965Z,-27.5
2023-03-01T19:32:45.705Z,-27.3
2023-03-01T19:34:47.649Z,-27.4
2023-03-01T19:38:51.016Z,-27.7
2023-03-01T19:40:52.237Z,-27.5
2023-03-01T19:42:54.083Z,-27.6
2023-03-01T19:44:56.001Z,-27.4
2023-03-01T19:51:00.987Z,-27.5
2023-03-01T19:53:02.116Z,-27.4
2023-03-01T19:55:09.300Z,-27.4
2023-03-01T19:57:04.422Z,-31.8
2023-03-01T19:59:06.002Z,-27.9
2023-03-01T20:01:07.876Z,-27.8
2023-03-01T20:03:09.881Z,-27.3
2023-03-01T20:05:11.946Z,-27.9
2023-03-01T20:07:13.574Z,-27.9
2023-03-01T20:09:21.310Z,-27.8
2023-03-01T20:11:16.346Z,-27.8
2023-03-01T20:13:17.707Z,-27.8
2023-03-01T20:15:19.165Z,-28
2023-03-01T20:17:21.108Z,-28
2023-03-01T20:19:22.199Z,-28.2
2023-03-01T20:22:07.713Z,-27.9
2023-03-01T20:24:09.664Z,-27.7
2023-03-01T20:26:11.431Z,-28.3
2023-03-01T20:28:13.117Z,-27.9
2023-03-01T20:32:15.869Z,-28
2023-03-01T20:34:17.317Z,-27.7
2023-03-01T20:36:19.078Z,-27.8
2023-03-01T20:38:20.612Z,-27.7
2023-03-01T20:42:23.991Z,-27.9
2023-03-01T20:44:25.710Z,-27.8
2023-03-01T20:46:27.043Z,-28
2023-03-01T20:48:28.149Z,-27.9
2023-03-01T20:50:30.104Z,-27.6
2023-03-01T20:52:36.732Z,-27.5
2023-03-01T20:54:33.320Z,-27.7
2023-03-01T20:56:34.911Z,-27.7
2023-03-01T20:58:35.983Z,-27.7
2023-03-01T21:00:37.452Z,-27.7
2023-03-01T21:02:39.420Z,-27.8
2023-03-01T21:04:40.701Z,-27.8
2023-03-01T21:06:41.803Z,-27.8
2023-03-01T21:08:43.060Z,-27.6
2023-03-01T21:10:44.797Z,-27.6
2023-03-01T21:12:46.432Z,-27.6
2023-03-01T21:14:48.283Z,-27.6
2023-03-01T21:16:49.863Z,-27.7
2023-03-01T21:18:51.468Z,-27.9
2023-03-01T21:20:52.508Z,-52.4
2023-03-01T21:22:54.049Z,-27.6
2023-03-01T21:26:57.333Z,-27.5
2023-03-01T21:28:58.459Z,-27.6
2023-03-01T21:30:59.843Z,-27.7
2023-03-01T21:33:01.842Z,-27.8
2023-03-01T21:35:02.943Z,-27.5
2023-03-01T21:37:04.817Z,-27.6
2023-03-01T21:41:07.993Z,-27.6
2023-03-01T21:43:09.856Z,-27.7
2023-03-01T21:45:10.690Z,-27.5
2023-03-01T21:47:12.465Z,-27.7
2023-03-01T21:49:14.017Z,-27.5
2023-03-01T21:51:15.608Z,-27.5
2023-03-01T21:53:16.798Z,-27.5
2023-03-01T21:55:18.455Z,-27.2
2023-03-01T21:57:19.939Z,-27.7
2023-03-01T21:59:21.091Z,-27.5
2023-03-01T22:03:23.512Z,-27.6
2023-03-01T22:05:24.964Z,-27.5
2023-03-01T22:07:26.621Z,-27.6
2023-03-01T22:09:27.757Z,-27.6
2023-03-01T22:13:30.928Z,-27.6
2023-03-01T22:15:32.814Z,-27.3
2023-03-01T22:17:34.317Z,-27.3
2023-03-01T22:19:35.437Z,-27.7
2023-03-01T22:25:40.779Z,-27.3
2023-03-01T22:27:42.556Z,-27.4
2023-03-01T22:29:43.996Z,-27.6
2023-03-01T22:31:45.718Z,-27.4
2023-03-01T22:33:47.574Z,-27.3
2023-03-01T22:35:49.398Z,-27.5
2023-03-01T22:37:50.887Z,-27.4
2023-03-01T22:39:51.985Z,-27.5
2023-03-01T22:41:53.297Z,-27.4
2023-03-01T22:45:55.654Z,-27.4
2023-03-01T22:47:57.328Z,-27.4
2023-03-01T22:49:58.997Z,-27.5
2023-03-01T22:52:01.384Z,-27.4
2023-03-01T22:56:04.575Z,-27.5
2023-03-01T22:58:06.005Z,-27.3
2023-03-01T23:00:07.187Z,-27.4
2023-03-01T23:02:08.897Z,-27.3
2023-03-01T23:04:19.597Z,-27.2
2023-03-01T23:08:14.011Z,-27.5
2023-03-01T23:10:15.651Z,-27.2
2023-03-01T23:12:17.661Z,-27.5
2023-03-01T23:14:19.296Z,-27.2
2023-03-01T23:16:20.710Z,-27.6
2023-03-01T23:18:22.509Z,-27.3
2023-03-01T23:20:24.364Z,-27.2
2023-03-01T23:22:25.949Z,-27.2
2023-03-01T23:24:28.062Z,-27.4
2023-03-01T23:28:31.197Z,-27.3
2023-03-01T23:30:32.516Z,-27.3
2023-03-01T23:32:33.992Z,-27.4
2023-03-01T23:34:35.753Z,-27.5
2023-03-01T23:38:38.785Z,-27.4
2023-03-01T23:40:40.602Z,-27.5
2023-03-01T23:42:42.303Z,-27.3
2023-03-01T23:44:43.452Z,-27.4
2023-03-01T23:50:47.397Z,-27.3
2023-03-01T23:52:48.476Z,-27.2
2023-03-01T23:54:49.777Z,-27.4
2023-03-01T23:56:51.663Z,-27.2
2023-03-01T23:58:52.869Z,-27.3
